Portada
METAR-TAF:

METAR-TAF

Aeroports :

Farmington Regional Airport

Farmington, Missouri, Estats Units d'Amèrica

latitud: 37-46N, longitud: 090-26W, altitud: 288 m

Observació

L'informe es va fer fa 55 minuts, a les 11:56 UTC
Vent 5 kt del Oest
Temperatura 7°C
Humitat 81%
Pressió 1007 hPa
Visibilitat: 16.1 km
Cel clar

METAR: KFAM 191156Z AUTO 28005KT 10SM CLR 07/04 A2975 RMK AO2 SLP083 70004 T00670044 10072 20033 53008

Hora: 06:51 (12:51 UTC)


TAF: manca

Observacions i pronòstics meteorològics de més de 4000 aeroports (METAR i TAF).

Les estacions disponibles són els punts grocs i vermells al mapa.

Posi el ratolí al punt desitjat per veure el nom de l'estació.

Feu clic per veure les observacions i els pronòstics meteorològics.

Per canviar el mapa: feu clic els botons verds amb una creu de color negre per apropar; al botó verd amb un guió per allunyar la imatge; o en les fletxes verdes per a mapes adjacents.


METAR-TAF: